Time;durP1;ratioP1;P1;durP2;ratioP2;P2;SDS_P1;SDS_P2;PMS_P1;PMS_P2;Temp;Humidity;BMP_temperature;BMP_pressure;BME280_temperature;BME280_humidity;BME280_pressure;Samples;Min_cycle;Max_cycle;Signal;HPM_P1;HPM_P2
2022/01/12 00:01:01;;;;;;;6.63;5.03;;;;;;;;;;5133082;27;20429;-82
2022/01/12 00:03:28;;;;;;;6.33;5.70;;;;;;;;;;5133076;27;20536;-82
2022/01/12 00:05:56;;;;;;;6.17;4.93;;;;;;;;;;5133108;27;20855;-82
2022/01/12 00:08:23;;;;;;;10.33;5.13;;;;;;;;;;5132894;27;20527;-82
2022/01/12 00:10:50;;;;;;;6.90;4.83;;;;;;;;;;5132976;27;20460;-83
2022/01/12 00:13:18;;;;;;;8.73;6.47;;;;;;;;;;5133166;27;20874;-82
2022/01/12 00:15:46;;;;;;;6.37;5.37;;;;;;;;;;5133168;27;20531;-83
2022/01/12 00:18:14;;;;;;;6.33;5.40;;;;;;;;;;5133150;27;20444;-82
2022/01/12 00:20:42;;;;;;;7.17;5.43;;;;;;;;;;5132808;27;20451;-82
2022/01/12 00:23:09;;;;;;;6.93;5.67;;;;;;;;;;5132723;27;20475;-82
2022/01/12 00:25:56;;;;;;;6.43;4.80;;;;;;;;;;5132777;27;20428;-82
2022/01/12 00:33:55;;;;;;;5.33;4.10;;;;;;;;;;5132825;28;20489;-82
2022/01/12 00:36:23;;;;;;;6.63;5.33;;;;;;;;;;5132690;27;20436;-82
2022/01/12 00:38:50;;;;;;;7.97;5.97;;;;;;;;;;5132649;27;20540;-82
2022/01/12 00:41:18;;;;;;;6.77;5.17;;;;;;;;;;5132652;27;20532;-82
2022/01/12 00:43:49;;;;;;;6.00;4.83;;;;;;;;;;5132839;27;20476;-82
2022/01/12 00:46:19;;;;;;;6.87;5.33;;;;;;;;;;5132575;27;20484;-83
2022/01/12 00:48:46;;;;;;;8.37;6.00;;;;;;;;;;5132517;27;20440;-83
2022/01/12 00:51:13;;;;;;;6.97;4.50;;;;;;;;;;5132604;27;20493;-82
2022/01/12 00:53:41;;;;;;;5.90;5.30;;;;;;;;;;5132694;27;20539;-83
2022/01/12 00:56:08;;;;;;;8.83;6.30;;;;;;;;;;5132539;27;20531;-82
2022/01/12 00:58:36;;;;;;;8.17;5.53;;;;;;;;;;5132406;27;20524;-83
2022/01/12 01:01:04;;;;;;;8.13;5.50;;;;;;;;;;5132430;27;21020;-82
2022/01/12 01:03:34;;;;;;;6.37;5.23;;;;;;;;;;5133431;27;20482;-82
2022/01/12 01:06:01;;;;;;;6.90;5.23;;;;;;;;;;5136280;27;20451;-82
2022/01/12 01:08:29;;;;;;;8.60;7.30;;;;;;;;;;5136503;27;20516;-82
2022/01/12 01:10:56;;;;;;;6.67;5.90;;;;;;;;;;5136139;27;20446;-82
2022/01/12 01:13:26;;;;;;;8.40;5.77;;;;;;;;;;5136460;27;20440;-82
2022/01/12 01:16:08;;;;;;;6.03;5.33;;;;;;;;;;5136255;27;20443;-82
2022/01/12 01:26:52;;;;;;;8.47;7.27;;;;;;;;;;5136363;27;20453;-82
2022/01/12 01:29:19;;;;;;;7.43;5.87;;;;;;;;;;5135900;27;20447;-82
2022/01/12 01:31:47;;;;;;;5.07;4.47;;;;;;;;;;5135818;27;20442;-82
2022/01/12 01:34:16;;;;;;;7.43;5.23;;;;;;;;;;5135747;27;20964;-82
2022/01/12 01:36:47;;;;;;;10.33;6.17;;;;;;;;;;5135970;27;20444;-82
2022/01/12 01:39:16;;;;;;;6.13;5.50;;;;;;;;;;5135769;27;20425;-82
2022/01/12 01:41:47;;;;;;;8.57;6.57;;;;;;;;;;5135853;27;20447;-82
2022/01/12 01:55:37;;;;;;;12.93;10.03;;;;;;;;;;5052246;28;20449;-82
2022/01/12 01:58:04;;;;;;;8.77;7.10;;;;;;;;;;5098820;27;20437;-82
2022/01/12 02:00:35;;;;;;;8.10;6.63;;;;;;;;;;5135189;27;20441;-82
2022/01/12 02:03:02;;;;;;;16.17;10.97;;;;;;;;;;5135276;27;20472;-82
2022/01/12 02:05:31;;;;;;;7.83;6.20;;;;;;;;;;5135142;27;20476;-82
2022/01/12 02:07:59;;;;;;;8.93;6.23;;;;;;;;;;5135116;27;20488;-82
2022/01/12 02:10:26;;;;;;;12.93;8.07;;;;;;;;;;5135102;27;20468;-82
2022/01/12 02:12:54;;;;;;;9.53;7.47;;;;;;;;;;5134995;27;20531;-82
2022/01/12 02:15:23;;;;;;;7.00;5.60;;;;;;;;;;5134339;27;20890;-82
2022/01/12 02:18:06;;;;;;;5.73;4.83;;;;;;;;;;5134904;27;20447;-82
2022/01/12 02:40:25;;;;;;;5.83;4.43;;;;;;;;;;5134525;27;20925;-82
2022/01/12 02:43:05;;;;;;;8.93;6.43;;;;;;;;;;5134250;27;20480;-82
2022/01/12 02:51:12;;;;;;;10.93;7.77;;;;;;;;;;5134547;27;20408;-82
2022/01/12 02:53:41;;;;;;;6.70;4.83;;;;;;;;;;5134175;27;20955;-82
2022/01/12 02:56:10;;;;;;;8.20;6.10;;;;;;;;;;5134202;27;20467;-82
2022/01/12 02:58:37;;;;;;;6.23;5.07;;;;;;;;;;5134098;27;20489;-82
2022/01/12 03:04:01;;;;;;;7.27;6.00;;;;;;;;;;5133985;27;20456;-82
2022/01/12 03:06:32;;;;;;;8.43;5.67;;;;;;;;;;5134486;27;20869;-82
2022/01/12 03:09:01;;;;;;;4.47;3.97;;;;;;;;;;5133925;27;20421;-82
2022/01/12 03:11:31;;;;;;;7.83;5.83;;;;;;;;;;5133804;27;20444;-81
2022/01/12 03:13:59;;;;;;;6.80;5.57;;;;;;;;;;5134438;27;20442;-82
2022/01/12 03:16:26;;;;;;;7.60;6.47;;;;;;;;;;5134025;27;20441;-82
2022/01/12 03:18:56;;;;;;;17.37;13.27;;;;;;;;;;5133708;27;20436;-81
2022/01/12 03:21:25;;;;;;;2.60;2.30;;;;;;;;;;5133973;27;20493;-82
2022/01/12 03:23:53;;;;;;;7.77;5.80;;;;;;;;;;5133869;27;20487;-82
2022/01/12 03:26:25;;;;;;;7.37;5.13;;;;;;;;;;5133408;27;20450;-81
2022/01/12 03:28:54;;;;;;;5.70;4.87;;;;;;;;;;5133930;27;20432;-81
2022/01/12 03:31:25;;;;;;;6.93;5.67;;;;;;;;;;5133764;27;20857;-81
2022/01/12 03:33:57;;;;;;;9.77;6.43;;;;;;;;;;5133483;27;20460;-81
2022/01/12 03:36:28;;;;;;;11.40;6.97;;;;;;;;;;5133396;27;20456;-80
2022/01/12 03:38:57;;;;;;;5.93;5.33;;;;;;;;;;5133631;27;20427;-81
2022/01/12 03:41:27;;;;;;;9.17;6.87;;;;;;;;;;5133241;27;20535;-81
2022/01/12 03:43:55;;;;;;;7.50;5.23;;;;;;;;;;5133659;27;20467;-81
2022/01/12 03:46:25;;;;;;;7.27;6.60;;;;;;;;;;5132967;27;20496;-81
2022/01/12 03:48:52;;;;;;;7.63;5.30;;;;;;;;;;5133242;27;20436;-81
2022/01/12 03:51:20;;;;;;;6.90;5.83;;;;;;;;;;5133069;27;20530;-81
2022/01/12 03:53:47;;;;;;;11.40;5.67;;;;;;;;;;5133215;27;20818;-81
2022/01/12 03:56:14;;;;;;;6.93;5.67;;;;;;;;;;5133382;27;20494;-81
2022/01/12 03:58:44;;;;;;;8.13;5.80;;;;;;;;;;5133092;27;20436;-81
2022/01/12 04:01:11;;;;;;;9.07;5.80;;;;;;;;;;5132994;27;20451;-81
2022/01/12 04:03:42;;;;;;;8.03;6.13;;;;;;;;;;5133261;27;20482;-82
2022/01/12 04:08:54;;;;;;;8.23;6.20;;;;;;;;;;5133064;27;20403;-81
2022/01/12 04:11:22;;;;;;;5.53;4.90;;;;;;;;;;5133145;27;20827;-81
2022/01/12 04:13:52;;;;;;;6.20;5.40;;;;;;;;;;5132701;27;20439;-81
2022/01/12 04:16:19;;;;;;;5.20;4.47;;;;;;;;;;5133335;27;20448;-81
2022/01/12 04:18:46;;;;;;;9.10;5.63;;;;;;;;;;5131853;27;20436;-82
2022/01/12 04:21:14;;;;;;;7.00;5.20;;;;;;;;;;5131944;27;20444;-81
2022/01/12 04:23:42;;;;;;;7.70;5.23;;;;;;;;;;5131604;27;20476;-82
2022/01/12 04:26:13;;;;;;;8.90;5.80;;;;;;;;;;5131687;27;20487;-82
2022/01/12 04:28:42;;;;;;;6.93;5.60;;;;;;;;;;5131817;27;20444;-81
2022/01/12 04:31:13;;;;;;;6.97;5.87;;;;;;;;;;5118976;27;20449;-82
2022/01/12 04:33:41;;;;;;;6.37;5.27;;;;;;;;;;5111060;28;20425;-83
2022/01/12 04:36:10;;;;;;;7.10;4.77;;;;;;;;;;5131450;28;20827;-81
2022/01/12 04:38:39;;;;;;;9.13;6.07;;;;;;;;;;5133056;27;20472;-81
2022/01/12 04:41:07;;;;;;;5.80;4.10;;;;;;;;;;5135700;27;20455;-82
2022/01/12 04:43:37;;;;;;;9.47;6.57;;;;;;;;;;5135117;27;20511;-81
2022/01/12 04:49:09;;;;;;;6.47;5.20;;;;;;;;;;5135695;27;20396;-82
2022/01/12 04:51:38;;;;;;;6.83;4.90;;;;;;;;;;5135407;27;20428;-81
2022/01/12 04:54:05;;;;;;;7.53;5.40;;;;;;;;;;5135057;27;20489;-80
2022/01/12 04:56:33;;;;;;;7.60;5.67;;;;;;;;;;5135524;27;20492;-82
2022/01/12 04:59:01;;;;;;;10.57;9.47;;;;;;;;;;5135379;27;20428;-82
2022/01/12 05:01:35;;;;;;;8.20;6.33;;;;;;;;;;5135491;27;20472;-82
2022/01/12 05:10:01;;;;;;;6.70;5.63;;;;;;;;;;5127507;27;20440;-82
2022/01/12 05:12:50;;;;;;;8.53;5.67;;;;;;;;;;5135731;27;20789;-83
2022/01/12 05:15:25;;;;;;;7.63;5.83;;;;;;;;;;5135156;27;20420;-81
2022/01/12 05:17:53;;;;;;;6.17;4.43;;;;;;;;;;5134964;27;20835;-81
2022/01/12 05:20:22;;;;;;;6.00;4.13;;;;;;;;;;5134862;27;20444;-81
2022/01/12 05:22:49;;;;;;;5.40;4.80;;;;;;;;;;5134640;27;20440;-81
2022/01/12 05:25:18;;;;;;;6.73;5.23;;;;;;;;;;5135184;27;20519;-81
2022/01/12 05:27:46;;;;;;;6.40;5.20;;;;;;;;;;5135891;27;20828;-81
2022/01/12 05:30:14;;;;;;;9.47;6.87;;;;;;;;;;5136457;27;20849;-81
2022/01/12 05:32:43;;;;;;;8.53;6.17;;;;;;;;;;5135684;27;20442;-81
2022/01/12 05:35:12;;;;;;;6.50;5.27;;;;;;;;;;5135811;27;21075;-81
2022/01/12 05:37:41;;;;;;;7.27;4.93;;;;;;;;;;5136003;27;20478;-81
2022/01/12 05:40:10;;;;;;;9.10;5.90;;;;;;;;;;5135900;27;20444;-82
2022/01/12 05:42:37;;;;;;;7.03;5.00;;;;;;;;;;5135979;27;20444;-81
2022/01/12 05:45:08;;;;;;;7.00;5.73;;;;;;;;;;5135231;27;20480;-81
2022/01/12 05:49:33;;;;;;;8.97;4.93;;;;;;;;;;5135545;27;20544;-82
2022/01/12 05:50:26;;;;;;;9.43;6.63;;;;;;;;;;5134059;27;20431;-82
2022/01/12 05:52:54;;;;;;;3.23;2.93;;;;;;;;;;5135350;27;20451;-81
2022/01/12 05:55:22;;;;;;;8.10;5.97;;;;;;;;;;5135280;27;20527;-82
2022/01/12 05:57:49;;;;;;;7.93;6.77;;;;;;;;;;5135362;27;20459;-82
2022/01/12 06:00:19;;;;;;;8.43;6.27;;;;;;;;;;5135268;27;20454;-82
2022/01/12 06:02:47;;;;;;;10.27;6.40;;;;;;;;;;5135164;27;20440;-82
2022/01/12 06:05:14;;;;;;;7.60;5.97;;;;;;;;;;5135109;27;20540;-82
2022/01/12 06:07:42;;;;;;;7.27;5.83;;;;;;;;;;5135378;27;20440;-81
2022/01/12 06:10:11;;;;;;;6.93;5.07;;;;;;;;;;5135057;27;20448;-81
2022/01/12 06:12:39;;;;;;;9.13;6.67;;;;;;;;;;5134974;27;20472;-81
2022/01/12 06:15:07;;;;;;;8.03;4.90;;;;;;;;;;5134904;27;20960;-82
2022/01/12 06:17:34;;;;;;;7.67;6.33;;;;;;;;;;5134881;27;20440;-82
2022/01/12 06:20:01;;;;;;;8.37;5.67;;;;;;;;;;5134839;27;20456;-82
2022/01/12 06:22:29;;;;;;;6.77;5.43;;;;;;;;;;5134818;27;20535;-82
2022/01/12 06:24:58;;;;;;;6.60;5.60;;;;;;;;;;5134708;27;20903;-82
2022/01/12 06:27:29;;;;;;;7.50;6.03;;;;;;;;;;5134654;27;20444;-82
2022/01/12 06:30:14;;;;;;;19.80;10.67;;;;;;;;;;5134938;27;20511;-82
2022/01/12 06:32:42;;;;;;;21.20;12.97;;;;;;;;;;5135221;27;20431;-81
2022/01/12 06:35:09;;;;;;;12.33;7.97;;;;;;;;;;5134537;27;20480;-82
2022/01/12 06:37:37;;;;;;;5.67;4.33;;;;;;;;;;5134582;27;20440;-82
2022/01/12 06:40:05;;;;;;;13.07;6.53;;;;;;;;;;5134432;27;20435;-82
2022/01/12 06:42:34;;;;;;;8.43;7.40;;;;;;;;;;5134481;27;20450;-82
2022/01/12 06:45:01;;;;;;;9.93;6.83;;;;;;;;;;5134204;27;20829;-82
2022/01/12 06:47:28;;;;;;;9.17;6.57;;;;;;;;;;5134418;27;20528;-82
2022/01/12 06:49:55;;;;;;;9.33;5.10;;;;;;;;;;5134265;27;20456;-82
2022/01/12 06:52:23;;;;;;;9.37;6.00;;;;;;;;;;5134556;27;20444;-82
2022/01/12 06:54:50;;;;;;;10.33;6.83;;;;;;;;;;5134178;27;20433;-81
2022/01/12 06:57:18;;;;;;;9.77;7.30;;;;;;;;;;5134488;27;20471;-81
2022/01/12 06:59:46;;;;;;;9.17;6.53;;;;;;;;;;5134329;27;20504;-82
2022/01/12 07:02:14;;;;;;;13.97;6.93;;;;;;;;;;5133595;27;20447;-82
2022/01/12 07:04:41;;;;;;;11.03;7.13;;;;;;;;;;5133941;27;20476;-82
2022/01/12 07:07:09;;;;;;;6.40;4.53;;;;;;;;;;5134277;27;20884;-82
2022/01/12 07:09:36;;;;;;;8.67;6.93;;;;;;;;;;5134151;27;20878;-82
2022/01/12 07:12:04;;;;;;;7.60;6.40;;;;;;;;;;5133859;27;20468;-82
2022/01/12 07:14:31;;;;;;;7.50;6.30;;;;;;;;;;5133767;27;20531;-81
2022/01/12 07:17:00;;;;;;;6.47;4.97;;;;;;;;;;5133783;27;20444;-81
2022/01/12 07:19:27;;;;;;;8.93;6.03;;;;;;;;;;5133705;27;20444;-82
2022/01/12 07:21:55;;;;;;;9.90;5.37;;;;;;;;;;5133827;27;20448;-81
2022/01/12 07:24:22;;;;;;;5.07;4.40;;;;;;;;;;5133501;27;21076;-81
2022/01/12 07:26:49;;;;;;;11.20;7.33;;;;;;;;;;5131974;27;20820;-81
2022/01/12 07:29:16;;;;;;;18.07;10.47;;;;;;;;;;5132687;27;20445;-81
2022/01/12 07:31:45;;;;;;;8.37;7.10;;;;;;;;;;5133424;27;20471;-81
2022/01/12 07:34:15;;;;;;;8.27;6.20;;;;;;;;;;5133766;27;20444;-82
2022/01/12 07:36:42;;;;;;;11.27;7.10;;;;;;;;;;5133804;27;20440;-81
2022/01/12 07:39:10;;;;;;;4.97;4.33;;;;;;;;;;5133342;27;20432;-82
2022/01/12 07:41:37;;;;;;;8.03;4.77;;;;;;;;;;5133023;27;20444;-82
2022/01/12 07:44:05;;;;;;;9.27;5.13;;;;;;;;;;5133207;27;20508;-81
2022/01/12 07:46:33;;;;;;;6.17;5.23;;;;;;;;;;5133160;27;20563;-81
2022/01/12 07:49:01;;;;;;;10.50;7.33;;;;;;;;;;5133579;27;20812;-81
2022/01/12 07:51:30;;;;;;;6.50;4.93;;;;;;;;;;5133177;27;20444;-81
2022/01/12 07:53:58;;;;;;;9.20;6.17;;;;;;;;;;5133174;27;20444;-81
2022/01/12 07:56:25;;;;;;;6.70;5.60;;;;;;;;;;5133052;27;20447;-81
2022/01/12 07:58:52;;;;;;;7.07;5.00;;;;;;;;;;5133233;27;20590;-82
2022/01/12 08:01:20;;;;;;;8.20;6.10;;;;;;;;;;5133430;27;20498;-81
2022/01/12 08:03:47;;;;;;;8.63;5.23;;;;;;;;;;5132936;27;20492;-81
2022/01/12 08:06:15;;;;;;;11.27;5.33;;;;;;;;;;5132964;27;20440;-81
2022/01/12 08:08:43;;;;;;;13.63;8.33;;;;;;;;;;5132999;27;20448;-82
2022/01/12 08:11:11;;;;;;;6.93;5.27;;;;;;;;;;5132907;27;20513;-82
2022/01/12 08:13:39;;;;;;;5.87;5.13;;;;;;;;;;5132126;27;20497;-82
2022/01/12 08:16:06;;;;;;;7.67;5.97;;;;;;;;;;5132901;27;20440;-82
2022/01/12 08:18:34;;;;;;;7.40;4.50;;;;;;;;;;5132978;27;20428;-83
2022/01/12 08:21:04;;;;;;;6.57;5.27;;;;;;;;;;5133156;27;20440;-81
2022/01/12 08:23:31;;;;;;;5.27;4.77;;;;;;;;;;5133195;27;20887;-83
2022/01/12 08:26:00;;;;;;;6.60;5.20;;;;;;;;;;5133075;27;20867;-82
2022/01/12 08:28:28;;;;;;;38.63;19.97;;;;;;;;;;5133061;27;20904;-82
2022/01/12 08:30:55;;;;;;;6.93;4.97;;;;;;;;;;5132680;27;20876;-82
2022/01/12 08:33:22;;;;;;;8.93;4.93;;;;;;;;;;5132788;27;20468;-82
2022/01/12 08:35:50;;;;;;;6.17;5.23;;;;;;;;;;5132738;27;20428;-82
2022/01/12 08:38:17;;;;;;;5.63;5.07;;;;;;;;;;5132695;27;20436;-83
2022/01/12 08:40:44;;;;;;;4.33;3.90;;;;;;;;;;5132894;27;20866;-82
2022/01/12 08:43:14;;;;;;;6.87;5.20;;;;;;;;;;5132959;27;20999;-83
2022/01/12 08:45:41;;;;;;;8.17;5.43;;;;;;;;;;5132399;27;20490;-83
2022/01/12 08:48:08;;;;;;;7.10;4.50;;;;;;;;;;5132791;27;20446;-83
2022/01/12 08:50:36;;;;;;;6.77;4.40;;;;;;;;;;5132641;27;20444;-83
2022/01/12 08:53:03;;;;;;;5.20;4.70;;;;;;;;;;5132491;27;20929;-84
2022/01/12 08:55:31;;;;;;;5.07;4.30;;;;;;;;;;5132965;27;20463;-84
2022/01/12 08:57:59;;;;;;;16.00;10.23;;;;;;;;;;5132824;27;20444;-84
2022/01/12 09:00:28;;;;;;;4.93;4.30;;;;;;;;;;5132525;27;20440;-84
2022/01/12 09:02:56;;;;;;;19.00;12.90;;;;;;;;;;5132523;27;20444;-83
2022/01/12 09:05:23;;;;;;;10.23;7.20;;;;;;;;;;5132705;27;20483;-84
2022/01/12 09:07:52;;;;;;;7.40;4.57;;;;;;;;;;5132512;27;20424;-84
2022/01/12 09:10:20;;;;;;;6.00;4.87;;;;;;;;;;5132716;27;20194;-83
2022/01/12 09:12:47;;;;;;;88.50;49.03;;;;;;;;;;5132454;27;20428;-83
2022/01/12 09:15:15;;;;;;;7.67;6.77;;;;;;;;;;5132388;27;20193;-83
2022/01/12 09:17:46;;;;;;;7.53;6.17;;;;;;;;;;5132319;27;20429;-83
2022/01/12 09:20:14;;;;;;;8.03;5.80;;;;;;;;;;5132720;28;20218;-83
2022/01/12 09:22:41;;;;;;;6.07;5.37;;;;;;;;;;5132276;27;20437;-83
2022/01/12 09:25:09;;;;;;;8.23;4.70;;;;;;;;;;5134093;27;20476;-82
2022/01/12 09:27:37;;;;;;;7.23;4.50;;;;;;;;;;5136299;27;20447;-83
2022/01/12 09:30:05;;;;;;;5.40;4.63;;;;;;;;;;5135886;27;20206;-83
2022/01/12 09:32:33;;;;;;;6.53;5.10;;;;;;;;;;5135872;27;20485;-83
2022/01/12 09:35:02;;;;;;;5.07;4.33;;;;;;;;;;5136138;27;20190;-83
2022/01/12 09:37:29;;;;;;;3.97;2.97;;;;;;;;;;5136208;27;20440;-83
2022/01/12 09:39:56;;;;;;;8.37;6.07;;;;;;;;;;5135760;27;20535;-83
2022/01/12 09:42:24;;;;;;;8.20;6.13;;;;;;;;;;5135993;27;20444;-83
2022/01/12 09:44:52;;;;;;;5.17;4.67;;;;;;;;;;5135705;27;20516;-83
2022/01/12 09:47:19;;;;;;;6.27;4.93;;;;;;;;;;5129757;27;20473;-83
2022/01/12 09:49:47;;;;;;;5.77;4.10;;;;;;;;;;5115007;28;20953;-83
2022/01/12 09:52:17;;;;;;;5.70;4.73;;;;;;;;;;5115271;28;20440;-83
2022/01/12 09:54:45;;;;;;;5.37;4.67;;;;;;;;;;5114925;28;20451;-83
2022/01/12 09:57:12;;;;;;;5.37;4.80;;;;;;;;;;5114985;28;20454;-83
2022/01/12 09:59:39;;;;;;;8.17;4.77;;;;;;;;;;5114819;28;20488;-83
2022/01/12 10:02:16;;;;;;;6.07;4.47;;;;;;;;;;5115313;28;20562;-83
2022/01/12 10:04:43;;;;;;;5.37;4.40;;;;;;;;;;5115006;28;20537;-82
2022/01/12 10:07:11;;;;;;;6.33;5.53;;;;;;;;;;5114648;28;20836;-83
2022/01/12 10:09:43;;;;;;;6.90;5.13;;;;;;;;;;5114614;28;20473;-83
2022/01/12 10:12:13;;;;;;;8.83;5.93;;;;;;;;;;5114896;28;20461;-83
2022/01/12 10:14:43;;;;;;;8.03;5.43;;;;;;;;;;5114565;28;20437;-83
2022/01/12 10:17:11;;;;;;;5.63;5.00;;;;;;;;;;5114461;28;20191;-83
2022/01/12 10:19:38;;;;;;;8.07;5.57;;;;;;;;;;5114760;28;20629;-83
2022/01/12 10:22:07;;;;;;;5.77;5.17;;;;;;;;;;5114360;28;20238;-83
2022/01/12 10:24:39;;;;;;;6.00;4.87;;;;;;;;;;5114264;28;20206;-84
2022/01/12 10:27:15;;;;;;;5.73;5.10;;;;;;;;;;5114694;27;20652;-84
2022/01/12 10:29:42;;;;;;;3.63;3.33;;;;;;;;;;5114389;28;20278;-84
2022/01/12 10:32:10;;;;;;;5.03;4.43;;;;;;;;;;5114445;28;20192;-84
2022/01/12 10:34:39;;;;;;;8.63;5.73;;;;;;;;;;5114211;28;20672;-84
2022/01/12 10:37:08;;;;;;;7.83;6.00;;;;;;;;;;5113650;28;20200;-85
2022/01/12 10:39:35;;;;;;;5.93;5.30;;;;;;;;;;5114087;28;20203;-85
2022/01/12 10:42:06;;;;;;;5.83;5.23;;;;;;;;;;5114339;28;20206;-85
2022/01/12 10:44:35;;;;;;;6.67;4.97;;;;;;;;;;5114156;28;20191;-85
2022/01/12 10:47:10;;;;;;;7.87;6.17;;;;;;;;;;5114261;28;20303;-85
2022/01/12 10:49:40;;;;;;;5.80;5.17;;;;;;;;;;5114326;28;20191;-85
2022/01/12 10:52:12;;;;;;;5.80;5.20;;;;;;;;;;5114521;28;20570;-86
2022/01/12 10:54:47;;;;;;;6.20;4.77;;;;;;;;;;5114123;27;20221;-86
2022/01/12 10:57:22;;;;;;;5.33;4.77;;;;;;;;;;5113972;28;20238;-86
2022/01/12 11:00:18;;;;;;;8.90;5.53;;;;;;;;;;5114149;28;20186;-86
2022/01/12 11:02:46;;;;;;;7.00;5.30;;;;;;;;;;5114107;28;20188;-86
2022/01/12 11:05:14;;;;;;;4.40;4.00;;;;;;;;;;5113720;28;20272;-86
2022/01/12 11:07:42;;;;;;;6.07;5.07;;;;;;;;;;5114081;28;20213;-86
2022/01/12 11:10:10;;;;;;;5.63;5.13;;;;;;;;;;5113651;28;20191;-86
2022/01/12 11:12:40;;;;;;;6.17;5.30;;;;;;;;;;5114023;28;20618;-86
2022/01/12 11:15:08;;;;;;;6.53;5.37;;;;;;;;;;5113959;28;20282;-86
2022/01/12 11:17:38;;;;;;;6.50;4.63;;;;;;;;;;5113738;28;20270;-86
2022/01/12 11:20:12;;;;;;;6.87;5.07;;;;;;;;;;5113444;28;20195;-86
2022/01/12 11:22:51;;;;;;;8.33;5.97;;;;;;;;;;5113414;28;20187;-85
2022/01/12 11:25:22;;;;;;;7.23;5.50;;;;;;;;;;5113763;28;20646;-86
2022/01/12 11:28:08;;;;;;;7.53;4.97;;;;;;;;;;5113230;28;20640;-85
2022/01/12 11:30:36;;;;;;;5.87;4.43;;;;;;;;;;5113561;28;20546;-85
2022/01/12 11:33:05;;;;;;;6.70;6.00;;;;;;;;;;5113389;28;20195;-86
2022/01/12 11:35:36;;;;;;;5.60;4.80;;;;;;;;;;5113140;28;20191;-86
2022/01/12 11:38:04;;;;;;;5.23;4.33;;;;;;;;;;5113590;28;20199;-85
2022/01/12 11:40:37;;;;;;;5.77;4.00;;;;;;;;;;5113245;28;20210;-86
2022/01/12 11:43:18;;;;;;;8.00;4.73;;;;;;;;;;5113174;28;20803;-86
2022/01/12 11:45:46;;;;;;;5.67;5.03;;;;;;;;;;5112849;28;20711;-85
2022/01/12 11:48:13;;;;;;;18.97;12.73;;;;;;;;;;5113197;28;20613;-85
2022/01/12 11:50:41;;;;;;;10.57;8.83;;;;;;;;;;5113277;28;20636;-84
2022/01/12 11:53:08;;;;;;;6.30;5.10;;;;;;;;;;5112778;28;20202;-85
2022/01/12 11:55:40;;;;;;;6.63;4.70;;;;;;;;;;5113198;28;20191;-85
2022/01/12 11:58:17;;;;;;;5.40;4.67;;;;;;;;;;5113064;28;20192;-85
2022/01/12 12:00:46;;;;;;;5.40;4.57;;;;;;;;;;5112695;28;20183;-86
2022/01/12 12:03:18;;;;;;;5.97;4.83;;;;;;;;;;5112771;28;20196;-85
2022/01/12 12:05:47;;;;;;;4.20;3.80;;;;;;;;;;5112709;28;20223;-85
2022/01/12 12:08:26;;;;;;;4.53;4.13;;;;;;;;;;5112995;28;20653;-85
2022/01/12 12:10:54;;;;;;;6.37;4.27;;;;;;;;;;5113024;28;20629;-86
2022/01/12 12:13:23;;;;;;;8.53;4.93;;;;;;;;;;5113195;28;20237;-86
2022/01/12 12:15:52;;;;;;;5.70;4.27;;;;;;;;;;5112645;28;20663;-85
2022/01/12 12:18:19;;;;;;;5.77;5.03;;;;;;;;;;5112533;28;20202;-86
2022/01/12 12:20:46;;;;;;;5.20;4.53;;;;;;;;;;5112886;28;20203;-86
2022/01/12 12:23:14;;;;;;;4.50;4.10;;;;;;;;;;5112997;28;20196;-85
2022/01/12 12:25:41;;;;;;;9.00;4.60;;;;;;;;;;5112336;28;20254;-85
2022/01/12 12:28:09;;;;;;;4.40;3.97;;;;;;;;;;5112494;28;20229;-86
2022/01/12 12:30:39;;;;;;;5.63;3.63;;;;;;;;;;5112622;28;20195;-86
2022/01/12 12:33:10;;;;;;;4.47;3.80;;;;;;;;;;5112494;28;20176;-85
2022/01/12 12:35:38;;;;;;;5.40;3.97;;;;;;;;;;5112438;28;20698;-85
2022/01/12 12:38:07;;;;;;;4.40;4.00;;;;;;;;;;5112379;28;20195;-85
2022/01/12 12:40:36;;;;;;;6.53;4.77;;;;;;;;;;5112583;28;20231;-85
2022/01/12 12:43:06;;;;;;;4.87;4.00;;;;;;;;;;5112709;28;20598;-85
2022/01/12 12:45:43;;;;;;;5.90;4.10;;;;;;;;;;5112131;28;20320;-86
2022/01/12 12:48:12;;;;;;;5.13;3.73;;;;;;;;;;5112493;28;20230;-86
2022/01/12 12:50:40;;;;;;;4.07;3.63;;;;;;;;;;5112220;28;20695;-85
2022/01/12 12:53:07;;;;;;;4.57;4.03;;;;;;;;;;5112273;28;20242;-85
2022/01/12 12:55:36;;;;;;;4.57;4.17;;;;;;;;;;5112348;28;20321;-86
2022/01/12 12:58:04;;;;;;;4.60;4.13;;;;;;;;;;5112582;28;20196;-85
2022/01/12 13:00:31;;;;;;;4.60;4.20;;;;;;;;;;5115058;28;20205;-85
2022/01/12 13:03:01;;;;;;;4.50;4.10;;;;;;;;;;5116156;27;20235;-85
2022/01/12 13:05:32;;;;;;;5.17;4.30;;;;;;;;;;5116222;28;20274;-84
2022/01/12 13:08:00;;;;;;;5.13;4.20;;;;;;;;;;5116834;28;20724;-85
2022/01/12 13:10:29;;;;;;;3.90;3.50;;;;;;;;;;5116085;28;20210;-85
2022/01/12 13:12:58;;;;;;;4.33;3.93;;;;;;;;;;5115886;28;20584;-85
2022/01/12 13:15:28;;;;;;;15.10;11.80;;;;;;;;;;5116043;27;20196;-85
2022/01/12 13:18:02;;;;;;;7.37;6.43;;;;;;;;;;5116018;28;20565;-85
2022/01/12 13:23:15;;;;;;;6.20;4.50;;;;;;;;;;5116051;28;20187;-85
2022/01/12 13:25:42;;;;;;;4.83;4.30;;;;;;;;;;5115514;28;20269;-84
2022/01/12 13:28:10;;;;;;;5.40;4.93;;;;;;;;;;5115972;28;20191;-84
2022/01/12 13:30:50;;;;;;;7.53;4.73;;;;;;;;;;5115704;28;20192;-84
2022/01/12 13:33:27;;;;;;;5.43;4.10;;;;;;;;;;5115838;28;20255;-84
2022/01/12 13:35:54;;;;;;;6.23;4.77;;;;;;;;;;5115581;28;20203;-84
2022/01/12 13:38:27;;;;;;;4.50;3.93;;;;;;;;;;5115226;28;20210;-84
2022/01/12 13:40:56;;;;;;;4.17;3.67;;;;;;;;;;5115314;28;20195;-84
2022/01/12 13:43:24;;;;;;;4.90;3.97;;;;;;;;;;5115489;28;20192;-84
2022/01/12 13:46:00;;;;;;;5.50;4.33;;;;;;;;;;5114888;28;20482;-84
2022/01/12 13:48:32;;;;;;;5.43;4.47;;;;;;;;;;5115022;28;20638;-84
2022/01/12 13:51:03;;;;;;;5.03;4.13;;;;;;;;;;5115063;28;20249;-84
2022/01/12 13:53:35;;;;;;;4.83;3.80;;;;;;;;;;5115283;28;20180;-84
2022/01/12 13:56:03;;;;;;;4.87;4.13;;;;;;;;;;5115060;28;20253;-84
2022/01/12 13:58:31;;;;;;;6.33;4.97;;;;;;;;;;5115322;28;20195;-85
2022/01/12 14:01:03;;;;;;;4.90;4.27;;;;;;;;;;5114884;28;20198;-85
2022/01/12 14:03:35;;;;;;;5.63;4.63;;;;;;;;;;5115187;28;20206;-84
2022/01/12 14:06:05;;;;;;;4.60;4.07;;;;;;;;;;5114800;28;20211;-85
2022/01/12 14:08:42;;;;;;;5.60;4.23;;;;;;;;;;5114726;28;20256;-84
2022/01/12 14:11:10;;;;;;;8.17;4.10;;;;;;;;;;5113588;28;20222;-84
2022/01/12 14:13:41;;;;;;;5.27;3.90;;;;;;;;;;5114706;28;20720;-85
2022/01/12 14:16:10;;;;;;;6.70;4.37;;;;;;;;;;5114592;28;20226;-84
2022/01/12 14:18:39;;;;;;;4.63;4.00;;;;;;;;;;5114787;28;20244;-84
2022/01/12 14:21:17;;;;;;;4.83;4.30;;;;;;;;;;5114810;28;20553;-85
2022/01/12 14:23:45;;;;;;;6.43;4.33;;;;;;;;;;5114454;28;20194;-85
2022/01/12 14:26:26;;;;;;;4.63;4.23;;;;;;;;;;5114276;28;20215;-84
2022/01/12 14:28:54;;;;;;;4.40;3.40;;;;;;;;;;5114705;28;20629;-84
2022/01/12 14:31:21;;;;;;;4.83;4.07;;;;;;;;;;5114270;28;20206;-84
2022/01/12 14:33:50;;;;;;;10.03;7.03;;;;;;;;;;5114483;28;20230;-84
2022/01/12 14:36:18;;;;;;;6.90;4.93;;;;;;;;;;5114185;28;20192;-84
2022/01/12 14:38:46;;;;;;;6.57;5.40;;;;;;;;;;5114134;28;20207;-84
2022/01/12 14:41:14;;;;;;;5.77;4.40;;;;;;;;;;5113845;27;20252;-84
2022/01/12 14:43:41;;;;;;;5.03;4.37;;;;;;;;;;5114508;28;20199;-84
2022/01/12 14:46:09;;;;;;;5.80;4.47;;;;;;;;;;5122161;27;20475;-84
2022/01/12 14:48:36;;;;;;;6.60;5.20;;;;;;;;;;5134564;27;20191;-83
2022/01/12 14:51:05;;;;;;;6.47;5.00;;;;;;;;;;5128815;27;20243;-83
2022/01/12 14:53:32;;;;;;;3.97;3.43;;;;;;;;;;5125559;27;20202;-83
2022/01/12 14:56:02;;;;;;;4.17;3.83;;;;;;;;;;5124055;27;20706;-84
2022/01/12 14:58:33;;;;;;;6.53;4.70;;;;;;;;;;5113576;28;20192;-84
2022/01/12 15:01:01;;;;;;;3.00;2.80;;;;;;;;;;5113551;28;20440;-83
2022/01/12 15:03:29;;;;;;;5.90;4.50;;;;;;;;;;5113500;28;20452;-82
2022/01/12 15:06:03;;;;;;;5.17;4.43;;;;;;;;;;5124160;27;20823;-82
2022/01/12 15:08:32;;;;;;;5.17;4.00;;;;;;;;;;5133945;27;20945;-82
2022/01/12 15:11:00;;;;;;;5.00;4.43;;;;;;;;;;5134059;27;20440;-83
2022/01/12 15:13:38;;;;;;;4.40;3.50;;;;;;;;;;5133821;27;20444;-82
2022/01/12 15:16:06;;;;;;;5.97;4.53;;;;;;;;;;5133708;27;20440;-81
2022/01/12 15:18:33;;;;;;;5.83;4.57;;;;;;;;;;5133635;27;20448;-82
2022/01/12 15:21:01;;;;;;;7.57;5.03;;;;;;;;;;5133665;27;20941;-82
2022/01/12 15:23:28;;;;;;;5.73;4.80;;;;;;;;;;5133401;27;20462;-82
2022/01/12 15:25:57;;;;;;;6.47;4.67;;;;;;;;;;5133636;27;20683;-82
2022/01/12 15:28:24;;;;;;;5.90;4.87;;;;;;;;;;5133570;27;20484;-83
2022/01/12 15:30:51;;;;;;;5.60;4.00;;;;;;;;;;5133714;27;20440;-83
2022/01/12 15:33:18;;;;;;;11.27;8.40;;;;;;;;;;5133525;27;20440;-84
2022/01/12 15:35:46;;;;;;;6.60;5.00;;;;;;;;;;5133459;27;20490;-84
2022/01/12 15:38:13;;;;;;;9.50;5.20;;;;;;;;;;5133716;27;20810;-84
2022/01/12 15:40:43;;;;;;;9.40;5.53;;;;;;;;;;5133319;27;20441;-82
2022/01/12 15:43:12;;;;;;;16.03;10.87;;;;;;;;;;5133186;27;20447;-82
2022/01/12 15:45:39;;;;;;;5.47;4.17;;;;;;;;;;5133204;27;20486;-83
2022/01/12 15:48:09;;;;;;;5.93;4.90;;;;;;;;;;5133139;27;20480;-82
2022/01/12 15:50:36;;;;;;;4.97;4.17;;;;;;;;;;5133518;27;20452;-84
2022/01/12 15:53:05;;;;;;;6.23;5.50;;;;;;;;;;5130078;27;20840;-82
2022/01/12 15:55:33;;;;;;;5.53;3.90;;;;;;;;;;5112653;28;20433;-81
2022/01/12 15:58:00;;;;;;;3.07;2.77;;;;;;;;;;5112519;28;20448;-83
2022/01/12 16:00:28;;;;;;;5.20;4.40;;;;;;;;;;5112669;28;20437;-83